createdAt,value
2017-01-28T00:00:11.875Z,15.60
2017-01-28T00:01:12.721Z,15.60
2017-01-28T00:02:12.257Z,15.60
2017-01-28T00:03:11.944Z,15.60
2017-01-28T00:04:12.730Z,15.60
2017-01-28T00:05:13.636Z,15.60
2017-01-28T00:06:11.729Z,15.60
2017-01-28T00:07:10.819Z,15.60
2017-01-28T00:08:11.239Z,15.60
2017-01-28T00:09:11.339Z,15.60
2017-01-28T00:10:11.198Z,15.50
2017-01-28T00:11:13.171Z,15.50
2017-01-28T00:12:11.790Z,15.50
2017-01-28T00:13:11.868Z,15.50
2017-01-28T00:14:11.825Z,15.50
2017-01-28T00:15:12.891Z,15.50
2017-01-28T00:16:13.133Z,15.50
2017-01-28T00:17:11.370Z,15.50
2017-01-28T00:18:11.604Z,15.50
2017-01-28T00:19:12.884Z,15.50
2017-01-28T00:20:12.927Z,15.50
2017-01-28T00:21:11.937Z,15.50
2017-01-28T00:22:13.767Z,15.50
2017-01-28T00:23:12.407Z,15.50
2017-01-28T00:24:11.637Z,15.50
2017-01-28T00:25:12.393Z,15.50
2017-01-28T00:26:12.448Z,15.50
2017-01-28T00:27:11.710Z,15.50
2017-01-28T00:28:11.922Z,15.50
2017-01-28T00:29:12.609Z,15.50
2017-01-28T00:30:11.314Z,15.50
2017-01-28T00:31:11.513Z,15.50
2017-01-28T00:32:12.423Z,15.50
2017-01-28T00:33:09.883Z,15.50
2017-01-28T00:34:11.974Z,15.50
2017-01-28T00:35:12.611Z,15.50
2017-01-28T00:36:11.732Z,15.50
2017-01-28T00:37:11.867Z,15.50
2017-01-28T00:38:12.620Z,15.50
2017-01-28T00:39:12.209Z,15.50
2017-01-28T00:40:12.118Z,15.50
2017-01-28T00:41:12.743Z,15.50
2017-01-28T00:42:11.876Z,15.50
2017-01-28T00:43:12.518Z,15.50
2017-01-28T00:44:12.355Z,15.50
2017-01-28T00:45:12.534Z,15.50
2017-01-28T00:46:11.745Z,15.50
2017-01-28T00:47:11.749Z,15.50
2017-01-28T00:48:12.205Z,15.50
2017-01-28T00:49:11.976Z,15.50
2017-01-28T00:50:12.795Z,15.50
2017-01-28T00:51:11.788Z,15.50
2017-01-28T00:52:10.468Z,15.50
2017-01-28T00:53:12.429Z,15.50
2017-01-28T00:54:12.231Z,15.50
2017-01-28T00:55:13.775Z,15.50
2017-01-28T00:56:11.832Z,15.50
2017-01-28T00:57:09.627Z,15.50
2017-01-28T00:58:11.175Z,15.50
2017-01-28T00:59:13.454Z,15.50
2017-01-28T01:00:13.577Z,15.50
2017-01-28T01:01:12.253Z,15.40
2017-01-28T01:02:08.569Z,15.50
2017-01-28T01:03:11.263Z,15.50
2017-01-28T01:04:15.079Z,15.50
2017-01-28T01:05:11.285Z,15.50
2017-01-28T01:06:10.095Z,15.50
2017-01-28T01:07:12.173Z,15.50
2017-01-28T01:08:13.053Z,15.50
2017-01-28T01:09:12.244Z,15.50
2017-01-28T01:10:13.412Z,15.50
2017-01-28T01:11:13.182Z,15.50
2017-01-28T01:12:11.671Z,15.40
2017-01-28T01:13:13.727Z,15.50
2017-01-28T01:14:15.151Z,15.50
2017-01-28T01:15:09.954Z,15.40
2017-01-28T01:16:12.010Z,15.40
2017-01-28T01:17:11.771Z,15.50
2017-01-28T01:18:12.949Z,15.40
2017-01-28T01:19:12.896Z,15.40
2017-01-28T01:20:12.331Z,15.50
2017-01-28T01:21:12.755Z,15.50
2017-01-28T01:22:12.107Z,15.50
2017-01-28T01:23:11.688Z,15.40
2017-01-28T01:24:10.340Z,15.50
2017-01-28T01:25:12.451Z,15.40
2017-01-28T01:26:10.303Z,15.50
2017-01-28T01:27:13.143Z,15.40
2017-01-28T01:28:09.445Z,15.40
2017-01-28T01:29:11.774Z,15.40
2017-01-28T01:30:11.294Z,15.40
2017-01-28T01:31:12.047Z,15.40
2017-01-28T01:32:11.784Z,15.40
2017-01-28T01:33:11.824Z,15.40
2017-01-28T01:34:12.471Z,15.40
2017-01-28T01:35:12.136Z,15.40
2017-01-28T01:36:11.981Z,15.40
2017-01-28T01:37:12.419Z,15.40
2017-01-28T01:38:13.684Z,15.40
2017-01-28T01:39:12.742Z,15.40
2017-01-28T01:40:12.961Z,15.40
2017-01-28T01:41:12.677Z,15.40
2017-01-28T01:42:14.556Z,15.40
2017-01-28T01:43:12.473Z,15.40
2017-01-28T01:44:11.477Z,15.40
2017-01-28T01:45:11.515Z,15.40
2017-01-28T01:46:12.201Z,15.40
2017-01-28T01:47:12.206Z,15.40
2017-01-28T01:48:11.373Z,15.40
2017-01-28T01:49:12.139Z,15.40
2017-01-28T01:50:11.824Z,15.40
2017-01-28T01:51:12.522Z,15.40
2017-01-28T01:52:12.739Z,15.40
2017-01-28T01:53:12.491Z,15.40
2017-01-28T01:54:12.731Z,15.40
2017-01-28T01:55:12.697Z,15.40
2017-01-28T01:56:12.876Z,15.40
2017-01-28T01:57:13.658Z,15.40
2017-01-28T01:58:12.399Z,15.40
2017-01-28T01:59:12.925Z,15.40
2017-01-28T02:00:12.317Z,15.40
2017-01-28T02:01:12.376Z,15.40
2017-01-28T02:02:11.596Z,15.40
2017-01-28T02:03:11.724Z,15.40
2017-01-28T02:04:09.843Z,15.40
2017-01-28T02:05:11.133Z,15.40
2017-01-28T02:06:11.725Z,15.40
2017-01-28T02:07:12.709Z,15.30
2017-01-28T02:08:13.181Z,15.40
2017-01-28T02:09:11.161Z,15.40
2017-01-28T02:10:11.879Z,15.30
2017-01-28T02:11:12.549Z,15.40
2017-01-28T02:12:14.258Z,15.40
2017-01-28T02:13:11.333Z,15.30
2017-01-28T02:14:11.667Z,15.40
2017-01-28T02:15:11.941Z,15.40
2017-01-28T02:16:14.387Z,15.40
2017-01-28T02:17:11.614Z,15.40
2017-01-28T02:18:13.246Z,15.40
2017-01-28T02:19:13.084Z,15.40
2017-01-28T02:20:11.085Z,15.30
2017-01-28T02:21:11.844Z,15.30
2017-01-28T02:22:13.026Z,15.40
2017-01-28T02:23:14.744Z,15.40
2017-01-28T02:24:13.177Z,15.30
2017-01-28T02:25:11.327Z,15.40
2017-01-28T02:26:10.057Z,15.40
2017-01-28T02:27:13.730Z,15.30
2017-01-28T02:28:12.485Z,15.40
2017-01-28T02:29:11.564Z,15.30
2017-01-28T02:30:12.364Z,15.30
2017-01-28T02:31:12.030Z,15.30
2017-01-28T02:32:11.959Z,15.40
2017-01-28T02:33:09.348Z,15.40
2017-01-28T02:34:11.987Z,15.40
2017-01-28T02:35:12.517Z,15.40
2017-01-28T02:36:12.182Z,15.40
2017-01-28T02:37:12.356Z,15.40
2017-01-28T02:38:11.911Z,15.40
2017-01-28T02:39:11.337Z,15.40
2017-01-28T02:40:12.033Z,15.30
2017-01-28T02:41:12.060Z,15.30
2017-01-28T02:42:11.532Z,15.40
2017-01-28T02:43:13.341Z,15.30
2017-01-28T02:44:11.214Z,15.30
2017-01-28T02:45:11.623Z,15.30
2017-01-28T02:46:13.659Z,15.30
2017-01-28T02:47:13.609Z,15.30
2017-01-28T02:48:12.228Z,15.30
2017-01-28T02:49:11.819Z,15.30
2017-01-28T02:50:12.033Z,15.30
2017-01-28T02:51:11.208Z,15.30
2017-01-28T02:52:11.268Z,15.30
2017-01-28T02:53:12.998Z,15.30
2017-01-28T02:54:13.162Z,15.30
2017-01-28T02:55:11.310Z,15.30
2017-01-28T02:56:09.721Z,15.30
2017-01-28T02:57:12.019Z,15.30
2017-01-28T02:58:11.806Z,15.30
2017-01-28T02:59:13.466Z,15.30
2017-01-28T03:00:12.008Z,15.40
2017-01-28T03:01:09.269Z,15.40
2017-01-28T03:02:11.294Z,15.40
2017-01-28T03:03:13.301Z,15.40
2017-01-28T03:04:12.000Z,15.40
2017-01-28T03:05:11.888Z,15.40
2017-01-28T03:06:12.862Z,15.40
2017-01-28T03:07:13.335Z,15.40
2017-01-28T03:08:12.339Z,15.40
2017-01-28T03:09:11.640Z,15.40
2017-01-28T03:10:12.172Z,15.40
2017-01-28T03:11:11.313Z,15.30
2017-01-28T03:12:11.317Z,15.40
2017-01-28T03:13:12.997Z,15.40
2017-01-28T03:14:12.236Z,15.40
2017-01-28T03:15:11.271Z,15.40
2017-01-28T03:16:11.270Z,15.40
2017-01-28T03:17:12.267Z,15.40
2017-01-28T03:18:11.805Z,15.40
2017-01-28T03:19:12.460Z,15.40
2017-01-28T03:20:11.621Z,15.40
2017-01-28T03:21:12.209Z,15.30
2017-01-28T03:22:11.431Z,15.40
2017-01-28T03:23:11.619Z,15.30
2017-01-28T03:24:10.181Z,15.40
2017-01-28T03:25:12.001Z,15.30
2017-01-28T03:26:11.158Z,15.30
2017-01-28T03:27:11.912Z,15.30
2017-01-28T03:28:12.459Z,15.40
2017-01-28T03:29:11.640Z,15.30
2017-01-28T03:30:11.832Z,15.30
2017-01-28T03:31:12.922Z,15.40
2017-01-28T03:32:12.781Z,15.30
2017-01-28T03:33:12.825Z,15.30
2017-01-28T03:34:12.591Z,15.30
2017-01-28T03:35:12.639Z,15.30
2017-01-28T03:36:12.379Z,15.30
2017-01-28T03:37:12.074Z,15.30
2017-01-28T03:38:11.110Z,15.30
2017-01-28T03:39:11.172Z,15.30
2017-01-28T03:40:09.852Z,15.40
2017-01-28T03:41:12.070Z,15.30
2017-01-28T03:42:11.314Z,15.30
2017-01-28T03:43:09.885Z,15.40
2017-01-28T03:44:09.998Z,15.40
2017-01-28T03:45:12.504Z,15.30
2017-01-28T03:46:11.631Z,15.40
2017-01-28T03:47:11.791Z,15.40
2017-01-28T03:48:11.768Z,15.30
2017-01-28T03:49:10.140Z,15.40
2017-01-28T03:50:12.229Z,15.40
2017-01-28T03:51:11.939Z,15.30
2017-01-28T03:52:12.058Z,15.40
2017-01-28T03:53:11.007Z,15.40
2017-01-28T03:54:13.133Z,15.40
2017-01-28T03:55:11.342Z,15.40
2017-01-28T03:56:11.987Z,15.40
2017-01-28T03:57:12.753Z,15.30
2017-01-28T03:58:12.734Z,15.30
2017-01-28T03:59:13.357Z,15.30
2017-01-28T04:00:13.332Z,15.30
2017-01-28T04:01:11.954Z,15.30
2017-01-28T04:02:10.548Z,15.30
2017-01-28T04:03:12.150Z,15.30
2017-01-28T04:04:12.220Z,15.30
2017-01-28T04:05:11.238Z,15.30
2017-01-28T04:06:10.223Z,15.30
2017-01-28T04:07:12.170Z,15.30
2017-01-28T04:08:11.306Z,15.30
2017-01-28T04:09:11.961Z,15.30
2017-01-28T04:10:12.780Z,15.30
2017-01-28T04:11:13.159Z,15.30
2017-01-28T04:12:09.010Z,15.30
2017-01-28T04:13:12.132Z,15.30
2017-01-28T04:14:12.171Z,15.30
2017-01-28T04:15:11.722Z,15.30
2017-01-28T04:16:09.159Z,15.30
2017-01-28T04:17:12.753Z,15.30
2017-01-28T04:18:11.631Z,15.30
2017-01-28T04:19:11.417Z,15.30
2017-01-28T04:20:11.572Z,15.30
2017-01-28T04:21:11.595Z,15.30
2017-01-28T04:22:12.475Z,15.30
2017-01-28T04:23:12.199Z,15.30
2017-01-28T04:24:11.897Z,15.30
2017-01-28T04:25:10.539Z,15.30
2017-01-28T04:26:11.806Z,15.30
2017-01-28T04:27:11.973Z,15.30
2017-01-28T04:28:13.081Z,15.30
2017-01-28T04:29:11.201Z,15.30
2017-01-28T04:30:12.933Z,15.30
2017-01-28T04:31:13.292Z,15.30
2017-01-28T04:32:12.041Z,15.30
2017-01-28T04:33:11.950Z,15.30
2017-01-28T04:34:11.525Z,15.30
2017-01-28T04:35:12.297Z,15.30
2017-01-28T04:36:12.696Z,15.30
2017-01-28T04:37:11.838Z,15.30
2017-01-28T04:38:14.488Z,15.30
2017-01-28T04:39:12.704Z,15.30
2017-01-28T04:40:12.401Z,15.30
2017-01-28T04:41:09.890Z,15.30
2017-01-28T04:42:10.241Z,15.30
2017-01-28T04:43:11.551Z,15.30
2017-01-28T04:44:11.451Z,15.30
2017-01-28T04:45:13.338Z,15.30
2017-01-28T04:46:12.007Z,15.30
2017-01-28T04:47:11.060Z,15.30
2017-01-28T04:48:11.130Z,15.30
2017-01-28T04:49:11.251Z,15.30
2017-01-28T04:50:12.293Z,15.30
2017-01-28T04:51:11.295Z,15.30
2017-01-28T04:52:12.537Z,15.30
2017-01-28T04:53:12.113Z,15.30
2017-01-28T04:54:11.091Z,15.30
2017-01-28T04:55:11.115Z,15.30
2017-01-28T04:56:11.797Z,15.30
2017-01-28T04:57:12.561Z,15.30
2017-01-28T04:58:12.141Z,15.30
2017-01-28T04:59:11.291Z,15.30
2017-01-28T05:00:12.046Z,15.30
2017-01-28T05:01:13.716Z,15.30
2017-01-28T05:02:12.550Z,15.30
2017-01-28T05:03:12.077Z,15.30
2017-01-28T05:04:09.869Z,15.30
2017-01-28T05:05:11.822Z,15.30
2017-01-28T05:06:13.268Z,15.30
2017-01-28T05:07:11.602Z,15.30
2017-01-28T05:08:12.322Z,15.30
2017-01-28T05:09:11.521Z,15.30
2017-01-28T05:10:11.568Z,15.30
2017-01-28T05:11:12.416Z,15.30
2017-01-28T05:12:12.202Z,15.30
2017-01-28T05:13:11.329Z,15.30
2017-01-28T05:14:11.983Z,15.30
2017-01-28T05:15:11.122Z,15.30
2017-01-28T05:16:11.275Z,15.30
2017-01-28T05:17:12.170Z,15.30
2017-01-28T05:18:12.923Z,15.30
2017-01-28T05:19:13.760Z,15.30
2017-01-28T05:20:12.130Z,15.30
2017-01-28T05:21:12.511Z,15.30
2017-01-28T05:22:11.592Z,15.30
2017-01-28T05:23:13.116Z,15.30
2017-01-28T05:24:11.660Z,15.30
2017-01-28T05:25:15.265Z,15.30
2017-01-28T05:26:15.598Z,15.30
2017-01-28T05:27:12.169Z,15.30
2017-01-28T05:28:09.296Z,15.30
2017-01-28T05:29:12.282Z,15.40
2017-01-28T05:30:12.179Z,15.30
2017-01-28T05:31:11.804Z,15.30
2017-01-28T05:32:12.451Z,15.30
2017-01-28T05:33:12.174Z,15.30
2017-01-28T05:34:11.861Z,15.40
2017-01-28T05:35:12.641Z,15.40
2017-01-28T05:36:11.883Z,15.30
2017-01-28T05:37:12.039Z,15.30
2017-01-28T05:38:10.692Z,15.40
2017-01-28T05:39:13.054Z,15.40
2017-01-28T05:40:11.672Z,15.30
2017-01-28T05:41:11.720Z,15.30
2017-01-28T05:42:12.807Z,15.40
2017-01-28T05:43:11.930Z,15.30
2017-01-28T05:44:10.263Z,15.30
2017-01-28T05:45:12.763Z,15.30
2017-01-28T05:46:13.458Z,15.30
2017-01-28T05:47:11.997Z,15.30
2017-01-28T05:48:12.090Z,15.30
2017-01-28T05:49:11.177Z,15.30
2017-01-28T05:50:11.306Z,15.30
2017-01-28T05:51:11.343Z,15.30
2017-01-28T05:52:12.018Z,15.30
2017-01-28T05:53:13.672Z,15.30
2017-01-28T05:54:11.762Z,15.30
2017-01-28T05:55:12.541Z,15.30
2017-01-28T05:56:11.616Z,15.30
2017-01-28T05:57:12.587Z,15.30
2017-01-28T05:58:11.819Z,15.30
2017-01-28T05:59:12.817Z,15.30
2017-01-28T06:00:13.827Z,15.30
2017-01-28T06:01:11.821Z,15.30
2017-01-28T06:02:11.828Z,15.30
2017-01-28T06:03:12.389Z,15.30
2017-01-28T06:04:11.628Z,15.30
2017-01-28T06:05:13.114Z,15.30
2017-01-28T06:06:11.183Z,15.30
2017-01-28T06:07:12.238Z,15.30
2017-01-28T06:08:12.701Z,15.30
2017-01-28T06:09:10.255Z,15.30
2017-01-28T06:10:11.856Z,15.30
2017-01-28T06:11:12.043Z,15.30
2017-01-28T06:12:12.535Z,15.30
2017-01-28T06:13:11.613Z,15.30
2017-01-28T06:14:12.258Z,15.30
2017-01-28T06:15:12.030Z,15.30
2017-01-28T06:16:09.257Z,15.30
2017-01-28T06:17:12.134Z,15.30
2017-01-28T06:18:11.158Z,15.30
2017-01-28T06:19:11.145Z,15.30
2017-01-28T06:20:11.939Z,15.30
2017-01-28T06:21:13.810Z,15.30
2017-01-28T06:22:11.904Z,15.30
2017-01-28T06:23:10.546Z,15.30
2017-01-28T06:24:11.816Z,15.40
2017-01-28T06:25:12.628Z,15.30
2017-01-28T06:26:12.257Z,15.40
2017-01-28T06:27:11.357Z,15.40
2017-01-28T06:28:12.091Z,15.40
2017-01-28T06:29:11.024Z,15.40
2017-01-28T06:30:11.608Z,15.40
2017-01-28T06:31:12.299Z,15.40
2017-01-28T06:32:12.721Z,15.40
2017-01-28T06:33:12.427Z,15.40
2017-01-28T06:34:13.139Z,15.40
2017-01-28T06:35:11.101Z,15.40
2017-01-28T06:36:13.994Z,15.40
2017-01-28T06:37:13.203Z,15.40
2017-01-28T06:38:11.401Z,15.40
2017-01-28T06:39:11.562Z,15.40
2017-01-28T06:40:12.419Z,15.40
2017-01-28T06:41:12.125Z,15.40
2017-01-28T06:42:11.053Z,15.40
2017-01-28T06:43:12.490Z,15.40
2017-01-28T06:44:11.630Z,15.40
2017-01-28T06:45:11.751Z,15.40
2017-01-28T06:46:11.820Z,15.40
2017-01-28T06:47:11.785Z,15.40
2017-01-28T06:48:11.961Z,15.40
2017-01-28T06:49:12.551Z,15.40
2017-01-28T06:50:12.215Z,15.40
2017-01-28T06:51:11.151Z,15.40
2017-01-28T06:52:11.240Z,15.40
2017-01-28T06:53:11.674Z,15.40
2017-01-28T06:54:11.862Z,15.40
2017-01-28T06:55:12.688Z,15.40
2017-01-28T06:56:13.617Z,15.30
2017-01-28T06:57:10.382Z,15.40
2017-01-28T06:58:12.231Z,15.30
2017-01-28T06:59:11.932Z,15.30
2017-01-28T07:00:13.508Z,15.30
2017-01-28T07:01:12.426Z,15.30
2017-01-28T07:02:11.996Z,15.30
2017-01-28T07:03:11.584Z,15.30
2017-01-28T07:04:11.572Z,15.30
2017-01-28T07:05:13.202Z,15.30
2017-01-28T07:06:11.998Z,15.30
2017-01-28T07:07:12.848Z,15.30
2017-01-28T07:08:13.325Z,15.30
2017-01-28T07:09:11.474Z,15.30
2017-01-28T07:10:12.296Z,15.30
2017-01-28T07:11:11.299Z,15.30
2017-01-28T07:12:11.286Z,15.30
2017-01-28T07:13:11.376Z,15.30
2017-01-28T07:14:11.929Z,15.30
2017-01-28T07:15:12.617Z,15.30
2017-01-28T07:16:12.236Z,15.30
2017-01-28T07:17:12.299Z,15.30
2017-01-28T07:18:11.400Z,15.30
2017-01-28T07:19:11.375Z,15.30
2017-01-28T07:20:12.411Z,15.30
2017-01-28T07:21:11.611Z,15.30
2017-01-28T07:22:11.867Z,15.30
2017-01-28T07:23:11.084Z,15.30
2017-01-28T07:24:11.768Z,15.30
2017-01-28T07:25:11.788Z,15.30
2017-01-28T07:26:12.553Z,15.30
2017-01-28T07:27:12.161Z,15.30
2017-01-28T07:28:11.348Z,15.30
2017-01-28T07:29:10.013Z,15.30
2017-01-28T07:30:11.481Z,15.30
2017-01-28T07:31:10.105Z,15.30
2017-01-28T07:32:13.046Z,15.30
2017-01-28T07:33:09.370Z,15.30
2017-01-28T07:34:08.429Z,15.30
2017-01-28T07:35:10.091Z,15.30
2017-01-28T07:36:11.419Z,15.30
2017-01-28T07:37:12.759Z,15.30
2017-01-28T07:38:11.851Z,15.30
2017-01-28T07:39:13.168Z,15.30
2017-01-28T07:40:12.479Z,15.30
2017-01-28T07:41:11.991Z,15.40
2017-01-28T07:42:12.069Z,15.30
2017-01-28T07:43:11.770Z,15.30
2017-01-28T07:44:12.497Z,15.30
2017-01-28T07:45:11.479Z,15.30
2017-01-28T07:46:12.148Z,15.30
2017-01-28T07:47:11.880Z,15.30
2017-01-28T07:48:12.511Z,15.30
2017-01-28T07:49:12.149Z,15.30
2017-01-28T07:50:11.982Z,15.30
2017-01-28T07:51:11.715Z,15.30
2017-01-28T07:52:12.284Z,15.30
2017-01-28T07:53:12.086Z,15.30
2017-01-28T07:54:12.739Z,15.30
2017-01-28T07:55:11.805Z,15.30
2017-01-28T07:56:12.754Z,15.30
2017-01-28T07:57:10.243Z,15.30
2017-01-28T07:58:11.618Z,15.30
2017-01-28T07:59:12.431Z,15.30
2017-01-28T08:00:12.253Z,15.30
2017-01-28T08:01:12.158Z,15.30
2017-01-28T08:02:11.288Z,15.30
2017-01-28T08:03:10.037Z,15.30
2017-01-28T08:04:12.077Z,15.30
2017-01-28T08:05:12.762Z,15.30
2017-01-28T08:06:10.303Z,15.30
2017-01-28T08:07:11.988Z,15.30
2017-01-28T08:08:09.763Z,15.30
2017-01-28T08:09:10.024Z,15.30
2017-01-28T08:10:12.877Z,15.30
2017-01-28T08:11:10.481Z,15.30
2017-01-28T08:12:12.934Z,15.30
2017-01-28T08:13:12.762Z,15.30
2017-01-28T08:14:12.360Z,15.30
2017-01-28T08:15:12.137Z,15.30
2017-01-28T08:16:11.307Z,15.30
2017-01-28T08:17:12.054Z,15.30
2017-01-28T08:18:12.879Z,15.30
2017-01-28T08:19:12.390Z,15.30
2017-01-28T08:20:12.033Z,15.40
2017-01-28T08:21:11.120Z,15.30
2017-01-28T08:22:11.685Z,15.30
2017-01-28T08:23:13.553Z,15.30
2017-01-28T08:24:12.250Z,15.40
2017-01-28T08:25:09.280Z,15.40
2017-01-28T08:26:12.279Z,15.40
2017-01-28T08:27:11.971Z,15.40
2017-01-28T08:28:13.527Z,15.40
2017-01-28T08:29:11.578Z,15.40
2017-01-28T08:30:12.256Z,15.40
2017-01-28T08:31:12.059Z,15.40
2017-01-28T08:32:11.248Z,15.40
2017-01-28T08:33:12.115Z,15.40
2017-01-28T08:34:12.288Z,15.40
2017-01-28T08:35:11.869Z,15.40
2017-01-28T08:36:11.914Z,15.30
2017-01-28T08:37:12.575Z,15.30
2017-01-28T08:38:11.793Z,15.40
2017-01-28T08:39:11.855Z,15.30
2017-01-28T08:40:12.008Z,15.40
2017-01-28T08:41:12.934Z,15.40
2017-01-28T08:42:12.563Z,15.40
2017-01-28T08:43:14.345Z,15.40
2017-01-28T08:44:11.941Z,15.30
2017-01-28T08:45:12.100Z,15.40
2017-01-28T08:46:11.702Z,15.40
2017-01-28T08:47:10.448Z,15.40
2017-01-28T08:48:12.563Z,15.40
2017-01-28T08:49:13.242Z,15.40
2017-01-28T08:50:11.980Z,15.40
2017-01-28T08:51:12.079Z,15.40
2017-01-28T08:52:11.069Z,15.40
2017-01-28T08:53:11.839Z,15.40
2017-01-28T08:54:12.477Z,15.40
2017-01-28T08:55:11.947Z,15.40
2017-01-28T08:56:12.759Z,15.40
2017-01-28T08:57:12.419Z,15.40
2017-01-28T08:58:13.128Z,15.40
2017-01-28T08:59:11.852Z,15.40
2017-01-28T09:00:12.027Z,15.40
2017-01-28T09:01:10.764Z,15.40
2017-01-28T09:02:11.198Z,15.40
2017-01-28T09:03:11.960Z,15.40
2017-01-28T09:04:11.678Z,15.40
2017-01-28T09:05:11.819Z,15.40
2017-01-28T09:06:10.280Z,15.40
2017-01-28T09:07:12.565Z,15.40
2017-01-28T09:08:11.650Z,15.40
2017-01-28T09:09:12.270Z,15.40
2017-01-28T09:10:12.924Z,15.40
2017-01-28T09:11:12.048Z,15.40
2017-01-28T09:12:11.031Z,15.40
2017-01-28T09:13:11.687Z,15.40
2017-01-28T09:14:12.428Z,15.40
2017-01-28T09:15:12.174Z,15.40
2017-01-28T09:16:11.987Z,15.40
2017-01-28T09:17:12.195Z,15.40
2017-01-28T09:18:12.107Z,15.40
2017-01-28T09:19:11.232Z,15.40
2017-01-28T09:20:11.156Z,15.40
2017-01-28T09:21:12.159Z,15.40
2017-01-28T09:22:11.319Z,15.40
2017-01-28T09:23:12.392Z,15.50
2017-01-28T09:24:09.772Z,15.50
2017-01-28T09:25:12.047Z,15.50
2017-01-28T09:26:11.004Z,15.50
2017-01-28T09:27:11.418Z,15.50
2017-01-28T09:28:13.374Z,15.60
2017-01-28T09:29:12.376Z,15.60
2017-01-28T09:30:10.290Z,15.60
2017-01-28T09:31:12.227Z,15.50
2017-01-28T09:32:11.506Z,15.60
2017-01-28T09:33:13.111Z,15.60
2017-01-28T09:34:12.829Z,15.60
2017-01-28T09:35:12.662Z,15.60
2017-01-28T09:36:12.312Z,15.60
2017-01-28T09:37:12.257Z,15.60
2017-01-28T09:38:11.437Z,15.60
2017-01-28T09:39:09.989Z,15.60
2017-01-28T09:40:13.207Z,15.60
2017-01-28T09:41:11.683Z,15.60
2017-01-28T09:42:10.410Z,15.60
2017-01-28T09:43:11.729Z,15.60
2017-01-28T09:44:11.990Z,15.60
2017-01-28T09:45:13.788Z,15.60
2017-01-28T09:46:12.457Z,15.60
2017-01-28T09:47:10.035Z,15.60
2017-01-28T09:48:11.443Z,15.60
2017-01-28T09:49:12.422Z,15.60
2017-01-28T09:50:11.534Z,15.60
2017-01-28T09:51:10.336Z,15.60
2017-01-28T09:52:12.357Z,15.60
2017-01-28T09:53:11.928Z,15.60
2017-01-28T09:54:10.810Z,15.60
2017-01-28T09:55:11.745Z,15.60
2017-01-28T09:56:09.734Z,15.60
2017-01-28T09:57:11.090Z,15.60
2017-01-28T09:58:13.089Z,15.60
2017-01-28T09:59:11.025Z,15.60
2017-01-28T10:00:11.081Z,15.60
2017-01-28T10:01:12.835Z,15.60
2017-01-28T10:02:12.411Z,15.60
2017-01-28T10:03:12.148Z,15.60
2017-01-28T10:04:11.752Z,15.60
2017-01-28T10:05:10.206Z,15.60
2017-01-28T10:06:09.060Z,15.60
2017-01-28T10:07:12.121Z,15.60
2017-01-28T10:08:11.033Z,15.60
2017-01-28T10:09:11.599Z,15.60
2017-01-28T10:10:12.203Z,15.60
2017-01-28T10:11:11.567Z,15.60
2017-01-28T10:12:11.742Z,15.60
2017-01-28T10:13:11.876Z,15.60
2017-01-28T10:14:13.470Z,15.60
2017-01-28T10:15:12.294Z,15.50
2017-01-28T10:16:11.899Z,15.50
2017-01-28T10:17:12.561Z,15.50
2017-01-28T10:18:11.641Z,15.50
2017-01-28T10:19:13.464Z,15.50
2017-01-28T10:20:12.285Z,15.40
2017-01-28T10:21:12.030Z,15.40
2017-01-28T10:22:09.309Z,15.50
2017-01-28T10:23:10.157Z,15.50
2017-01-28T10:24:11.631Z,15.60
2017-01-28T10:25:11.830Z,15.60
2017-01-28T10:26:12.433Z,15.70
2017-01-28T10:27:12.263Z,15.80
2017-01-28T10:28:12.055Z,15.80
2017-01-28T10:29:11.714Z,15.80
2017-01-28T10:30:11.727Z,15.80
2017-01-28T10:31:12.455Z,15.90
2017-01-28T10:32:11.545Z,15.90
2017-01-28T10:33:13.132Z,15.90
2017-01-28T10:34:11.795Z,16.00
2017-01-28T10:35:13.668Z,16.00
2017-01-28T10:36:12.278Z,16.00
2017-01-28T10:37:11.671Z,16.00
2017-01-28T10:38:12.474Z,16.10
2017-01-28T10:39:12.151Z,16.10
2017-01-28T10:40:11.775Z,16.10
2017-01-28T10:41:11.863Z,16.10
2017-01-28T10:42:11.441Z,16.10
2017-01-28T10:43:12.410Z,16.10
2017-01-28T10:44:11.455Z,16.10
2017-01-28T10:45:12.137Z,16.10
2017-01-28T10:46:11.359Z,16.10
2017-01-28T10:47:11.646Z,16.10
2017-01-28T10:48:13.071Z,16.10
2017-01-28T10:49:11.995Z,16.10
2017-01-28T10:50:11.308Z,16.10
2017-01-28T10:51:11.920Z,16.10
2017-01-28T10:52:10.435Z,16.10
2017-01-28T10:53:12.488Z,16.10
2017-01-28T10:54:11.348Z,16.10
2017-01-28T10:55:11.369Z,16.20
2017-01-28T10:56:12.735Z,16.20
2017-01-28T10:57:11.428Z,16.20
2017-01-28T10:58:11.940Z,16.20
2017-01-28T10:59:12.496Z,16.20
2017-01-28T11:00:11.544Z,16.20
2017-01-28T11:01:11.635Z,16.20
2017-01-28T11:02:12.293Z,16.20
2017-01-28T11:03:11.888Z,16.20
2017-01-28T11:04:12.572Z,16.20
2017-01-28T11:05:11.648Z,16.20
2017-01-28T11:06:12.784Z,16.20
2017-01-28T11:07:11.996Z,16.20
2017-01-28T11:08:11.811Z,16.20
2017-01-28T11:09:12.695Z,16.20
2017-01-28T11:10:13.044Z,16.30
2017-01-28T11:11:11.566Z,16.20
2017-01-28T11:12:12.033Z,16.20
2017-01-28T11:13:12.017Z,16.20
2017-01-28T11:14:11.074Z,16.10
2017-01-28T11:15:11.074Z,16.10
2017-01-28T11:16:11.127Z,16.10
2017-01-28T11:17:11.815Z,16.10
2017-01-28T11:18:12.516Z,16.10
2017-01-28T11:19:10.142Z,16.10
2017-01-28T11:20:12.040Z,16.00
2017-01-28T11:21:11.360Z,16.00
2017-01-28T11:22:09.936Z,16.00
2017-01-28T11:23:12.023Z,16.00
2017-01-28T11:24:11.036Z,16.00
2017-01-28T11:25:11.068Z,16.00
2017-01-28T11:26:11.706Z,15.90
2017-01-28T11:27:12.266Z,15.90
2017-01-28T11:28:11.995Z,15.80
2017-01-28T11:29:12.111Z,15.80
2017-01-28T11:30:12.869Z,15.80
2017-01-28T11:31:11.903Z,15.80
2017-01-28T11:32:12.553Z,15.80
2017-01-28T11:33:12.197Z,15.80
2017-01-28T11:34:11.431Z,15.80
2017-01-28T11:35:11.523Z,15.80
2017-01-28T11:36:12.209Z,15.80
2017-01-28T11:37:09.225Z,15.80
2017-01-28T11:38:13.536Z,15.80
2017-01-28T11:39:11.576Z,15.80
2017-01-28T11:40:12.262Z,15.80
2017-01-28T11:41:11.914Z,15.80
2017-01-28T11:42:13.556Z,15.80
2017-01-28T11:43:12.105Z,15.80
2017-01-28T11:44:11.936Z,15.80
2017-01-28T11:45:12.749Z,15.80
2017-01-28T11:46:11.776Z,15.90
2017-01-28T11:47:11.742Z,15.80
2017-01-28T11:48:11.810Z,15.90
2017-01-28T11:49:13.402Z,15.90
2017-01-28T11:50:11.546Z,15.90
2017-01-28T11:51:12.036Z,15.90
2017-01-28T11:52:11.710Z,15.90
2017-01-28T11:53:14.051Z,15.90
2017-01-28T11:54:11.155Z,15.90
2017-01-28T11:55:09.974Z,15.90
2017-01-28T11:56:12.445Z,15.90
2017-01-28T11:57:11.502Z,15.90
2017-01-28T11:58:11.659Z,15.90
2017-01-28T11:59:12.508Z,16.00
2017-01-28T12:00:11.532Z,16.00
2017-01-28T12:01:10.023Z,16.00
2017-01-28T12:02:11.693Z,15.90
2017-01-28T12:03:12.399Z,16.00
2017-01-28T12:04:11.964Z,16.00
2017-01-28T12:05:12.848Z,16.00
2017-01-28T12:06:09.695Z,15.90
2017-01-28T12:07:13.004Z,15.90
2017-01-28T12:08:12.164Z,15.90
2017-01-28T12:09:11.215Z,15.90
2017-01-28T12:10:11.092Z,15.90
2017-01-28T12:11:12.730Z,15.90
2017-01-28T12:12:11.681Z,15.90
2017-01-28T12:13:11.948Z,15.90
2017-01-28T12:14:12.716Z,15.90
2017-01-28T12:15:12.352Z,15.90
2017-01-28T12:16:11.806Z,15.90
2017-01-28T12:17:09.658Z,15.90
2017-01-28T12:18:11.893Z,15.90
2017-01-28T12:19:12.725Z,15.80
2017-01-28T12:20:11.550Z,15.80
2017-01-28T12:21:10.165Z,15.90
2017-01-28T12:22:11.541Z,15.80
2017-01-28T12:23:12.955Z,15.90
2017-01-28T12:24:11.535Z,15.90
2017-01-28T12:25:12.319Z,15.90
2017-01-28T12:26:12.049Z,15.90
2017-01-28T12:27:13.139Z,15.90
2017-01-28T12:28:11.649Z,15.90
2017-01-28T12:29:10.357Z,15.90
2017-01-28T12:30:11.846Z,15.90
2017-01-28T12:31:12.535Z,15.90
2017-01-28T12:32:11.550Z,15.90
2017-01-28T12:33:11.512Z,15.90
2017-01-28T12:34:11.913Z,15.90
2017-01-28T12:35:12.086Z,15.90
2017-01-28T12:36:13.948Z,15.90
2017-01-28T12:37:12.609Z,15.90
2017-01-28T12:38:12.701Z,15.90
2017-01-28T12:39:11.962Z,15.90
2017-01-28T12:40:12.679Z,15.90
2017-01-28T12:41:11.659Z,15.90
2017-01-28T12:42:09.514Z,15.90
2017-01-28T12:43:11.744Z,15.90
2017-01-28T12:44:11.822Z,15.90
2017-01-28T12:45:13.081Z,15.90
2017-01-28T12:46:11.772Z,15.90
2017-01-28T12:47:12.812Z,15.90
2017-01-28T12:48:11.938Z,15.80
2017-01-28T12:49:11.907Z,15.80
2017-01-28T12:50:11.987Z,15.80
2017-01-28T12:51:09.350Z,15.80
2017-01-28T12:52:11.111Z,15.80